Terminal Aerodrome Forecast
Issued by NWS

Home | Current Version | Previous Version | Text Only | Print | Product List | Glossary On
Versions: 1 2 3 4 5 6 7 8 9 10 11 12 13 14 15 16 17 18 19
000
FTUS43 KAPX 210520
TAFAPN
TAF
KAPN 210520Z 2106/2206 28006KT P6SM SCT040
     FM211300 24006KT P6SM SCT040
     FM211700 22008KT P6SM SCT040 BKN120
     FM220100 20009KT P6SM BKN150 WS020/22035KT=

USA.gov is the U.S. government's official web portal to all federal, state and local government web resources and services.